West Falmouth, MA (02574)

11:41 PM EDT on June 02, 2015 (GMT -0400)
Frazar | | Change Station
CLOSE
Current Station
Personal Weather Station
Location: Falmouth, MA
Elevation: 43 ft
Nearby Weather Stations

Elev 43 ft 41.60 °N, 70.63 °W | Updated 10 minutes ago

Overcast
Overcast
46.6 °F
Feels Like 47 °F
N
1.0
Wind Variable Wind from NE
Gusts 4.0 mph

Today
High -- | Low -- °F
--% Chance of Precip.
Yesterday
High -- | Low -- °F
Precip. -- in
5:10 AM 8:10 PM
Full, 100% visible
Pressure 30.17 in
Visibility 10.0 miles
Clouds Few 1200 ft
Mostly Cloudy 18000 ft
Overcast 20000 ft
Windchill 47 °F
Dew Point 46 °F
Humidity 96%
Rainfall 0.62 in
Snow Depth Not available.
UV 0 out of 12
Pollen 1.00 out of 12
Air Quality Not available.
Flu Activity Local Activity
METAR KFMH 030335Z AUTO 02007KT 350V050 10SM FEW012 BKN180 OVC200 09/07 A3017 RMK AO2

More Conditions Fewer Conditions

Pressure 30.17 in
Visibility 10.0 miles
Clouds Few 1200 ft
Mostly Cloudy 18000 ft
Overcast 20000 ft
Windchill 47 °F
Dew Point 46 °F
Humidity 96%
Rainfall 0.62 in
Snow Depth Not available.
UV 0 out of 12
Pollen 1.00 out of 12
Air Quality Not available.
Flu Activity Local Activity
METAR KFMH 030335Z AUTO 02007KT 350V050 10SM FEW012 BKN180 OVC200 09/07 A3017 RMK AO2

More Conditions Fewer Conditions

10-Day Weather Forecast

×

Almanac

Astronomy

Jun. 02, 2015 Rise Set
Actual Time
Civil Twilight
Nautical Twilight
Astronomical Twilight
Moon
Length of Visible Light
Length of Day
Tomorrow will be .
, % of the Moon is Illuminated

Today's Extremes

State Highs State Lows

Community

WunderPhotos

Upload Photos

1,826,138 photos uploaded!

WunderBlogs® & News

Nearby

Air Quality

  Air Quality AQ Index Pollutant
Not available.

Snow Depth

Station Depth Elevation

Earthquake Activity

City Distance Mag. Time & Date
Minimum magnitude displayed is 2.5.

Coastal Water Temperatures

Place Temperature

Stations

Nearby Weather Stations

Station Location Temp. Windchill Dew Point Humidity Wind Precip. Elev Updated Type